sensor_id;sensor_type;location;lat;lon;timestamp;temperature;humidity
14192;DHT22;7177;48.572;7.838;2023-06-22T00:01:53;22.60;99.90
14192;DHT22;7177;48.572;7.838;2023-06-22T00:04:18;22.60;99.90
14192;DHT22;7177;48.572;7.838;2023-06-22T00:06:44;22.60;99.90
14192;DHT22;7177;48.572;7.838;2023-06-22T00:09:09;22.60;99.90
14192;DHT22;7177;48.572;7.838;2023-06-22T00:11:36;22.60;99.90
14192;DHT22;7177;48.572;7.838;2023-06-22T00:14:02;22.50;99.90
14192;DHT22;7177;48.572;7.838;2023-06-22T00:16:28;22.50;99.90
14192;DHT22;7177;48.572;7.838;2023-06-22T00:18:54;22.50;99.90
14192;DHT22;7177;48.572;7.838;2023-06-22T00:21:19;22.40;99.90
14192;DHT22;7177;48.572;7.838;2023-06-22T00:23:48;22.40;99.90
14192;DHT22;7177;48.572;7.838;2023-06-22T00:26:13;22.40;99.90
14192;DHT22;7177;48.572;7.838;2023-06-22T00:28:39;22.30;99.90
14192;DHT22;7177;48.572;7.838;2023-06-22T00:31:05;22.20;99.90
14192;DHT22;7177;48.572;7.838;2023-06-22T00:33:30;22.20;99.90
14192;DHT22;7177;48.572;7.838;2023-06-22T00:35:56;22.10;99.90
14192;DHT22;7177;48.572;7.838;2023-06-22T00:38:22;22.00;99.90
14192;DHT22;7177;48.572;7.838;2023-06-22T00:40:47;22.00;99.90
14192;DHT22;7177;48.572;7.838;2023-06-22T00:43:13;21.90;99.90
14192;DHT22;7177;48.572;7.838;2023-06-22T00:45:38;21.90;99.90
14192;DHT22;7177;48.572;7.838;2023-06-22T00:48:05;21.90;99.90
14192;DHT22;7177;48.572;7.838;2023-06-22T00:50:32;21.80;99.90
14192;DHT22;7177;48.572;7.838;2023-06-22T00:53:04;21.80;99.90
14192;DHT22;7177;48.572;7.838;2023-06-22T00:55:42;21.70;99.90
14192;DHT22;7177;48.572;7.838;2023-06-22T00:58:09;21.60;99.90
14192;DHT22;7177;48.572;7.838;2023-06-22T01:00:36;21.60;99.90
14192;DHT22;7177;48.572;7.838;2023-06-22T01:03:03;21.60;99.90
14192;DHT22;7177;48.572;7.838;2023-06-22T01:05:29;21.60;99.90
14192;DHT22;7177;48.572;7.838;2023-06-22T01:08:23;21.60;99.90
14192;DHT22;7177;48.572;7.838;2023-06-22T01:11:03;21.70;99.90
14192;DHT22;7177;48.572;7.838;2023-06-22T01:13:56;21.70;99.90
14192;DHT22;7177;48.572;7.838;2023-06-22T01:16:24;21.60;99.90
14192;DHT22;7177;48.572;7.838;2023-06-22T01:18:52;21.60;99.90
14192;DHT22;7177;48.572;7.838;2023-06-22T01:21:21;21.60;99.90
14192;DHT22;7177;48.572;7.838;2023-06-22T01:23:56;21.50;99.90
14192;DHT22;7177;48.572;7.838;2023-06-22T01:28:57;21.40;99.90
14192;DHT22;7177;48.572;7.838;2023-06-22T01:31:25;21.20;99.90
14192;DHT22;7177;48.572;7.838;2023-06-22T01:33:54;21.10;99.90
14192;DHT22;7177;48.572;7.838;2023-06-22T01:36:21;21.00;99.90
14192;DHT22;7177;48.572;7.838;2023-06-22T01:38:48;20.90;99.90
14192;DHT22;7177;48.572;7.838;2023-06-22T01:41:14;21.00;99.90
14192;DHT22;7177;48.572;7.838;2023-06-22T01:43:40;21.00;99.90
14192;DHT22;7177;48.572;7.838;2023-06-22T01:46:07;21.00;99.90
14192;DHT22;7177;48.572;7.838;2023-06-22T01:48:33;21.00;99.90
14192;DHT22;7177;48.572;7.838;2023-06-22T01:50:59;21.00;99.90
14192;DHT22;7177;48.572;7.838;2023-06-22T01:53:25;21.00;99.90
14192;DHT22;7177;48.572;7.838;2023-06-22T01:55:51;20.90;99.90
14192;DHT22;7177;48.572;7.838;2023-06-22T01:58:16;20.80;99.90
14192;DHT22;7177;48.572;7.838;2023-06-22T02:01:00;20.90;99.90
14192;DHT22;7177;48.572;7.838;2023-06-22T02:03:34;20.80;99.90
14192;DHT22;7177;48.572;7.838;2023-06-22T02:06:06;20.80;99.90
14192;DHT22;7177;48.572;7.838;2023-06-22T02:08:51;20.90;99.90
14192;DHT22;7177;48.572;7.838;2023-06-22T02:11:20;20.90;99.90
14192;DHT22;7177;48.572;7.838;2023-06-22T02:13:47;21.00;99.90
14192;DHT22;7177;48.572;7.838;2023-06-22T02:16:14;20.90;99.90
14192;DHT22;7177;48.572;7.838;2023-06-22T02:18:48;20.80;99.90
14192;DHT22;7177;48.572;7.838;2023-06-22T02:21:17;20.80;99.90
14192;DHT22;7177;48.572;7.838;2023-06-22T02:23:43;20.80;99.90
14192;DHT22;7177;48.572;7.838;2023-06-22T02:26:09;20.70;99.90
14192;DHT22;7177;48.572;7.838;2023-06-22T02:28:34;20.70;99.90
14192;DHT22;7177;48.572;7.838;2023-06-22T02:31:00;20.70;99.90
14192;DHT22;7177;48.572;7.838;2023-06-22T02:33:25;20.70;99.90
14192;DHT22;7177;48.572;7.838;2023-06-22T02:35:52;20.60;99.90
14192;DHT22;7177;48.572;7.838;2023-06-22T02:38:18;20.60;99.90
14192;DHT22;7177;48.572;7.838;2023-06-22T02:40:45;20.60;99.90
14192;DHT22;7177;48.572;7.838;2023-06-22T02:43:10;20.60;99.90
14192;DHT22;7177;48.572;7.838;2023-06-22T02:45:36;20.60;99.90
14192;DHT22;7177;48.572;7.838;2023-06-22T02:48:01;20.60;99.90
14192;DHT22;7177;48.572;7.838;2023-06-22T02:50:27;20.60;99.90
14192;DHT22;7177;48.572;7.838;2023-06-22T02:52:52;20.70;99.90
14192;DHT22;7177;48.572;7.838;2023-06-22T02:55:18;20.60;99.90
14192;DHT22;7177;48.572;7.838;2023-06-22T02:57:43;20.60;99.90
14192;DHT22;7177;48.572;7.838;2023-06-22T03:00:10;20.60;99.90
14192;DHT22;7177;48.572;7.838;2023-06-22T03:02:47;20.60;99.90
14192;DHT22;7177;48.572;7.838;2023-06-22T03:05:13;20.50;99.90
14192;DHT22;7177;48.572;7.838;2023-06-22T03:07:43;20.60;99.90
14192;DHT22;7177;48.572;7.838;2023-06-22T03:10:09;20.60;99.90
14192;DHT22;7177;48.572;7.838;2023-06-22T03:12:36;20.60;99.90
14192;DHT22;7177;48.572;7.838;2023-06-22T03:15:02;20.50;99.90
14192;DHT22;7177;48.572;7.838;2023-06-22T03:17:27;20.60;99.90
14192;DHT22;7177;48.572;7.838;2023-06-22T03:19:53;20.50;99.90
14192;DHT22;7177;48.572;7.838;2023-06-22T03:22:18;20.50;99.90
14192;DHT22;7177;48.572;7.838;2023-06-22T03:24:44;20.30;99.90
14192;DHT22;7177;48.572;7.838;2023-06-22T03:27:09;20.20;99.90
14192;DHT22;7177;48.572;7.838;2023-06-22T03:29:35;20.20;99.90
14192;DHT22;7177;48.572;7.838;2023-06-22T03:32:00;20.20;99.90
14192;DHT22;7177;48.572;7.838;2023-06-22T03:34:26;20.20;99.90
14192;DHT22;7177;48.572;7.838;2023-06-22T03:36:52;20.20;99.90
14192;DHT22;7177;48.572;7.838;2023-06-22T03:39:17;20.20;99.90
14192;DHT22;7177;48.572;7.838;2023-06-22T03:41:43;20.10;99.90
14192;DHT22;7177;48.572;7.838;2023-06-22T03:44:08;20.20;99.90
14192;DHT22;7177;48.572;7.838;2023-06-22T03:46:37;20.30;99.90
14192;DHT22;7177;48.572;7.838;2023-06-22T03:49:03;20.50;99.90
14192;DHT22;7177;48.572;7.838;2023-06-22T03:51:29;20.50;99.90
14192;DHT22;7177;48.572;7.838;2023-06-22T03:53:54;20.60;99.90
14192;DHT22;7177;48.572;7.838;2023-06-22T03:56:20;20.80;99.90
14192;DHT22;7177;48.572;7.838;2023-06-22T03:58:46;21.20;99.90
14192;DHT22;7177;48.572;7.838;2023-06-22T04:01:11;21.40;99.90
14192;DHT22;7177;48.572;7.838;2023-06-22T04:03:38;21.60;99.90
14192;DHT22;7177;48.572;7.838;2023-06-22T04:06:03;21.80;99.90
14192;DHT22;7177;48.572;7.838;2023-06-22T04:08:29;21.70;99.90
14192;DHT22;7177;48.572;7.838;2023-06-22T04:10:55;21.70;99.90
14192;DHT22;7177;48.572;7.838;2023-06-22T04:13:20;21.80;99.90
14192;DHT22;7177;48.572;7.838;2023-06-22T04:15:46;21.70;99.90
14192;DHT22;7177;48.572;7.838;2023-06-22T04:18:12;21.80;99.90
14192;DHT22;7177;48.572;7.838;2023-06-22T04:20:39;21.90;99.90
14192;DHT22;7177;48.572;7.838;2023-06-22T04:23:04;21.90;99.90
14192;DHT22;7177;48.572;7.838;2023-06-22T04:25:30;21.90;99.90
14192;DHT22;7177;48.572;7.838;2023-06-22T04:27:55;21.80;99.90
14192;DHT22;7177;48.572;7.838;2023-06-22T04:30:21;21.60;99.90
14192;DHT22;7177;48.572;7.838;2023-06-22T04:32:47;21.50;99.90
14192;DHT22;7177;48.572;7.838;2023-06-22T04:35:23;21.60;99.90
14192;DHT22;7177;48.572;7.838;2023-06-22T04:37:49;21.70;99.90
14192;DHT22;7177;48.572;7.838;2023-06-22T04:40:15;21.80;99.90
14192;DHT22;7177;48.572;7.838;2023-06-22T04:42:41;22.00;99.90
14192;DHT22;7177;48.572;7.838;2023-06-22T04:45:17;22.10;99.90
14192;DHT22;7177;48.572;7.838;2023-06-22T04:47:43;22.40;99.90
14192;DHT22;7177;48.572;7.838;2023-06-22T04:50:13;22.50;99.90
14192;DHT22;7177;48.572;7.838;2023-06-22T04:52:39;22.60;99.90
14192;DHT22;7177;48.572;7.838;2023-06-22T04:55:05;22.70;99.90
14192;DHT22;7177;48.572;7.838;2023-06-22T04:57:30;22.70;99.90
14192;DHT22;7177;48.572;7.838;2023-06-22T04:59:59;22.90;99.90
14192;DHT22;7177;48.572;7.838;2023-06-22T05:02:40;22.90;99.90
14192;DHT22;7177;48.572;7.838;2023-06-22T05:05:07;23.00;99.90
14192;DHT22;7177;48.572;7.838;2023-06-22T05:07:36;23.10;99.90
14192;DHT22;7177;48.572;7.838;2023-06-22T05:10:03;23.20;99.90
14192;DHT22;7177;48.572;7.838;2023-06-22T05:12:29;23.30;99.90
14192;DHT22;7177;48.572;7.838;2023-06-22T05:14:55;23.40;99.90
14192;DHT22;7177;48.572;7.838;2023-06-22T05:17:21;23.50;99.90
14192;DHT22;7177;48.572;7.838;2023-06-22T05:19:46;23.60;99.90
14192;DHT22;7177;48.572;7.838;2023-06-22T05:22:14;23.80;99.90
14192;DHT22;7177;48.572;7.838;2023-06-22T05:24:40;23.80;99.90
14192;DHT22;7177;48.572;7.838;2023-06-22T05:27:06;23.90;99.90
14192;DHT22;7177;48.572;7.838;2023-06-22T05:29:31;24.00;99.90
14192;DHT22;7177;48.572;7.838;2023-06-22T05:31:57;24.00;99.90
14192;DHT22;7177;48.572;7.838;2023-06-22T05:34:22;23.80;99.90
14192;DHT22;7177;48.572;7.838;2023-06-22T05:36:48;23.80;99.90
14192;DHT22;7177;48.572;7.838;2023-06-22T05:39:14;23.90;99.90
14192;DHT22;7177;48.572;7.838;2023-06-22T05:41:40;23.90;99.90
14192;DHT22;7177;48.572;7.838;2023-06-22T05:44:06;24.00;99.90
14192;DHT22;7177;48.572;7.838;2023-06-22T05:46:31;24.10;99.90
14192;DHT22;7177;48.572;7.838;2023-06-22T05:48:57;24.20;99.90
14192;DHT22;7177;48.572;7.838;2023-06-22T05:51:22;24.10;99.90
14192;DHT22;7177;48.572;7.838;2023-06-22T05:53:48;24.20;99.90
14192;DHT22;7177;48.572;7.838;2023-06-22T05:56:15;24.40;99.90
14192;DHT22;7177;48.572;7.838;2023-06-22T05:58:41;24.60;99.90
14192;DHT22;7177;48.572;7.838;2023-06-22T06:01:07;24.80;99.90
14192;DHT22;7177;48.572;7.838;2023-06-22T06:03:32;23.70;99.90
14192;DHT22;7177;48.572;7.838;2023-06-22T06:05:58;24.90;99.90
14192;DHT22;7177;48.572;7.838;2023-06-22T06:08:23;24.80;99.90
14192;DHT22;7177;48.572;7.838;2023-06-22T06:10:49;24.80;99.90
14192;DHT22;7177;48.572;7.838;2023-06-22T06:13:14;24.90;99.90
14192;DHT22;7177;48.572;7.838;2023-06-22T06:15:40;25.10;99.90
14192;DHT22;7177;48.572;7.838;2023-06-22T06:18:06;25.30;99.90
14192;DHT22;7177;48.572;7.838;2023-06-22T06:20:32;25.40;99.90
14192;DHT22;7177;48.572;7.838;2023-06-22T06:22:58;25.50;99.90
14192;DHT22;7177;48.572;7.838;2023-06-22T06:25:23;25.30;99.90
14192;DHT22;7177;48.572;7.838;2023-06-22T06:27:50;25.10;99.90
14192;DHT22;7177;48.572;7.838;2023-06-22T06:30:18;25.20;99.90
14192;DHT22;7177;48.572;7.838;2023-06-22T06:32:44;25.00;99.90
14192;DHT22;7177;48.572;7.838;2023-06-22T06:35:12;25.10;99.90
14192;DHT22;7177;48.572;7.838;2023-06-22T06:37:40;25.20;99.90
14192;DHT22;7177;48.572;7.838;2023-06-22T06:40:07;25.40;99.90
14192;DHT22;7177;48.572;7.838;2023-06-22T06:42:39;25.70;99.90
14192;DHT22;7177;48.572;7.838;2023-06-22T06:45:08;25.90;99.90
14192;DHT22;7177;48.572;7.838;2023-06-22T06:47:34;25.70;99.90
14192;DHT22;7177;48.572;7.838;2023-06-22T06:49:59;25.70;99.90
14192;DHT22;7177;48.572;7.838;2023-06-22T06:52:25;25.90;99.90
14192;DHT22;7177;48.572;7.838;2023-06-22T06:54:51;26.10;99.90
14192;DHT22;7177;48.572;7.838;2023-06-22T06:57:18;26.10;99.90
14192;DHT22;7177;48.572;7.838;2023-06-22T06:59:43;26.30;99.90
14192;DHT22;7177;48.572;7.838;2023-06-22T07:02:09;26.50;99.90
14192;DHT22;7177;48.572;7.838;2023-06-22T07:04:34;26.60;99.90
14192;DHT22;7177;48.572;7.838;2023-06-22T07:07:01;26.60;99.90
14192;DHT22;7177;48.572;7.838;2023-06-22T07:09:27;26.60;99.90
14192;DHT22;7177;48.572;7.838;2023-06-22T07:11:52;26.80;99.90
14192;DHT22;7177;48.572;7.838;2023-06-22T07:14:18;26.90;99.90
14192;DHT22;7177;48.572;7.838;2023-06-22T07:16:43;26.90;99.90
14192;DHT22;7177;48.572;7.838;2023-06-22T07:19:11;27.00;99.90
14192;DHT22;7177;48.572;7.838;2023-06-22T07:21:37;26.90;99.90
14192;DHT22;7177;48.572;7.838;2023-06-22T07:24:02;27.10;99.90
14192;DHT22;7177;48.572;7.838;2023-06-22T07:26:28;27.00;99.90
14192;DHT22;7177;48.572;7.838;2023-06-22T07:28:53;26.60;99.90
14192;DHT22;7177;48.572;7.838;2023-06-22T07:31:19;26.20;99.90
14192;DHT22;7177;48.572;7.838;2023-06-22T07:33:44;26.20;99.90
14192;DHT22;7177;48.572;7.838;2023-06-22T07:36:10;26.30;99.90
14192;DHT22;7177;48.572;7.838;2023-06-22T07:38:35;26.30;99.90
14192;DHT22;7177;48.572;7.838;2023-06-22T07:41:02;26.20;99.90
14192;DHT22;7177;48.572;7.838;2023-06-22T07:43:30;26.40;99.90
14192;DHT22;7177;48.572;7.838;2023-06-22T07:45:58;26.70;99.90
14192;DHT22;7177;48.572;7.838;2023-06-22T07:48:23;26.90;99.90
14192;DHT22;7177;48.572;7.838;2023-06-22T07:50:49;27.00;99.90
14192;DHT22;7177;48.572;7.838;2023-06-22T07:53:15;27.10;99.90
14192;DHT22;7177;48.572;7.838;2023-06-22T07:55:40;27.50;99.90
14192;DHT22;7177;48.572;7.838;2023-06-22T07:58:06;27.80;99.90
14192;DHT22;7177;48.572;7.838;2023-06-22T08:00:33;27.80;99.90
14192;DHT22;7177;48.572;7.838;2023-06-22T08:02:58;27.70;99.90
14192;DHT22;7177;48.572;7.838;2023-06-22T08:05:24;27.80;99.90
14192;DHT22;7177;48.572;7.838;2023-06-22T08:07:49;28.10;99.90
14192;DHT22;7177;48.572;7.838;2023-06-22T08:10:15;28.50;99.90
14192;DHT22;7177;48.572;7.838;2023-06-22T08:12:41;28.50;99.90
14192;DHT22;7177;48.572;7.838;2023-06-22T08:15:07;28.40;99.90
14192;DHT22;7177;48.572;7.838;2023-06-22T08:17:33;28.10;99.90
14192;DHT22;7177;48.572;7.838;2023-06-22T08:19:59;27.70;99.90
14192;DHT22;7177;48.572;7.838;2023-06-22T08:22:25;27.40;99.90
14192;DHT22;7177;48.572;7.838;2023-06-22T08:24:51;27.10;99.90
14192;DHT22;7177;48.572;7.838;2023-06-22T08:27:16;27.10;99.90
14192;DHT22;7177;48.572;7.838;2023-06-22T08:29:44;27.30;99.90
14192;DHT22;7177;48.572;7.838;2023-06-22T08:32:11;27.60;99.90
14192;DHT22;7177;48.572;7.838;2023-06-22T08:34:37;27.70;99.90
14192;DHT22;7177;48.572;7.838;2023-06-22T08:37:08;27.70;99.90
14192;DHT22;7177;48.572;7.838;2023-06-22T08:39:33;27.70;99.90
14192;DHT22;7177;48.572;7.838;2023-06-22T08:41:59;27.90;99.90
14192;DHT22;7177;48.572;7.838;2023-06-22T08:44:25;27.80;99.90
14192;DHT22;7177;48.572;7.838;2023-06-22T08:46:51;27.60;99.90
14192;DHT22;7177;48.572;7.838;2023-06-22T08:49:16;27.50;99.90
14192;DHT22;7177;48.572;7.838;2023-06-22T08:51:41;27.50;99.90
14192;DHT22;7177;48.572;7.838;2023-06-22T08:54:07;27.60;99.90
14192;DHT22;7177;48.572;7.838;2023-06-22T08:56:32;27.60;99.90
14192;DHT22;7177;48.572;7.838;2023-06-22T08:58:58;27.40;99.90
14192;DHT22;7177;48.572;7.838;2023-06-22T09:01:24;27.50;99.90
14192;DHT22;7177;48.572;7.838;2023-06-22T09:03:49;27.60;99.90
14192;DHT22;7177;48.572;7.838;2023-06-22T09:06:20;27.60;99.90
14192;DHT22;7177;48.572;7.838;2023-06-22T09:08:47;27.50;99.90
14192;DHT22;7177;48.572;7.838;2023-06-22T09:11:12;27.40;99.90
14192;DHT22;7177;48.572;7.838;2023-06-22T09:13:38;27.30;99.90
14192;DHT22;7177;48.572;7.838;2023-06-22T09:16:04;27.40;99.90
14192;DHT22;7177;48.572;7.838;2023-06-22T09:18:29;27.40;99.90
14192;DHT22;7177;48.572;7.838;2023-06-22T09:20:55;27.30;99.90
14192;DHT22;7177;48.572;7.838;2023-06-22T09:23:20;27.30;99.90
14192;DHT22;7177;48.572;7.838;2023-06-22T09:25:46;27.30;99.90
14192;DHT22;7177;48.572;7.838;2023-06-22T09:28:13;27.40;99.90
14192;DHT22;7177;48.572;7.838;2023-06-22T09:30:39;27.50;99.90
14192;DHT22;7177;48.572;7.838;2023-06-22T09:33:04;27.50;99.90
14192;DHT22;7177;48.572;7.838;2023-06-22T09:35:30;27.50;99.90
14192;DHT22;7177;48.572;7.838;2023-06-22T09:37:56;27.60;99.90
14192;DHT22;7177;48.572;7.838;2023-06-22T09:40:21;27.70;99.90
14192;DHT22;7177;48.572;7.838;2023-06-22T09:42:47;27.90;99.90
14192;DHT22;7177;48.572;7.838;2023-06-22T09:45:12;27.90;99.90
14192;DHT22;7177;48.572;7.838;2023-06-22T09:47:38;28.00;99.90
14192;DHT22;7177;48.572;7.838;2023-06-22T09:50:04;27.90;99.90
14192;DHT22;7177;48.572;7.838;2023-06-22T09:52:29;27.90;99.90
14192;DHT22;7177;48.572;7.838;2023-06-22T09:54:55;27.80;99.90
14192;DHT22;7177;48.572;7.838;2023-06-22T09:57:21;27.90;99.90
14192;DHT22;7177;48.572;7.838;2023-06-22T09:59:46;28.20;99.90
14192;DHT22;7177;48.572;7.838;2023-06-22T10:02:12;28.00;99.90
14192;DHT22;7177;48.572;7.838;2023-06-22T10:04:38;28.00;99.90
14192;DHT22;7177;48.572;7.838;2023-06-22T10:07:05;28.10;99.90
14192;DHT22;7177;48.572;7.838;2023-06-22T10:09:31;28.20;99.90
14192;DHT22;7177;48.572;7.838;2023-06-22T10:11:56;28.30;99.90
14192;DHT22;7177;48.572;7.838;2023-06-22T10:14:22;28.60;99.90
14192;DHT22;7177;48.572;7.838;2023-06-22T10:16:48;28.80;99.90
14192;DHT22;7177;48.572;7.838;2023-06-22T10:19:13;29.10;99.90
14192;DHT22;7177;48.572;7.838;2023-06-22T10:21:39;29.70;99.90
14192;DHT22;7177;48.572;7.838;2023-06-22T10:24:05;30.40;99.90
14192;DHT22;7177;48.572;7.838;2023-06-22T10:26:35;30.80;99.90
14192;DHT22;7177;48.572;7.838;2023-06-22T10:29:02;30.70;99.90
14192;DHT22;7177;48.572;7.838;2023-06-22T10:31:28;30.50;99.90
14192;DHT22;7177;48.572;7.838;2023-06-22T10:33:54;30.20;99.90
14192;DHT22;7177;48.572;7.838;2023-06-22T10:36:20;30.00;99.90
14192;DHT22;7177;48.572;7.838;2023-06-22T10:38:45;29.80;99.90
14192;DHT22;7177;48.572;7.838;2023-06-22T10:41:12;29.90;99.90
14192;DHT22;7177;48.572;7.838;2023-06-22T10:43:38;30.00;99.90
14192;DHT22;7177;48.572;7.838;2023-06-22T10:46:03;30.20;99.90
14192;DHT22;7177;48.572;7.838;2023-06-22T10:48:29;30.30;99.90
14192;DHT22;7177;48.572;7.838;2023-06-22T10:50:54;30.50;99.90
14192;DHT22;7177;48.572;7.838;2023-06-22T10:53:20;30.80;99.90
14192;DHT22;7177;48.572;7.838;2023-06-22T10:55:46;31.40;99.90
14192;DHT22;7177;48.572;7.838;2023-06-22T10:58:12;32.30;99.90
14192;DHT22;7177;48.572;7.838;2023-06-22T11:00:37;32.60;99.90
14192;DHT22;7177;48.572;7.838;2023-06-22T11:03:03;32.80;99.90
14192;DHT22;7177;48.572;7.838;2023-06-22T11:05:28;32.50;99.90
14192;DHT22;7177;48.572;7.838;2023-06-22T11:07:54;32.30;99.90
14192;DHT22;7177;48.572;7.838;2023-06-22T11:10:20;32.00;99.90
14192;DHT22;7177;48.572;7.838;2023-06-22T11:12:45;32.00;99.90
14192;DHT22;7177;48.572;7.838;2023-06-22T11:15:11;32.10;99.90
14192;DHT22;7177;48.572;7.838;2023-06-22T11:17:36;31.70;99.90
14192;DHT22;7177;48.572;7.838;2023-06-22T11:20:02;31.60;99.90
14192;DHT22;7177;48.572;7.838;2023-06-22T11:22:35;31.70;99.90
14192;DHT22;7177;48.572;7.838;2023-06-22T11:25:00;32.00;99.90
14192;DHT22;7177;48.572;7.838;2023-06-22T11:27:26;32.10;99.90
14192;DHT22;7177;48.572;7.838;2023-06-22T11:29:51;31.80;99.90
14192;DHT22;7177;48.572;7.838;2023-06-22T11:32:18;31.30;99.90
14192;DHT22;7177;48.572;7.838;2023-06-22T11:34:44;30.80;99.90
14192;DHT22;7177;48.572;7.838;2023-06-22T11:37:09;30.50;99.90
14192;DHT22;7177;48.572;7.838;2023-06-22T11:39:34;30.10;99.90
14192;DHT22;7177;48.572;7.838;2023-06-22T11:42:00;30.10;99.90
14192;DHT22;7177;48.572;7.838;2023-06-22T11:44:25;29.90;99.90
14192;DHT22;7177;48.572;7.838;2023-06-22T11:46:51;29.90;99.90
14192;DHT22;7177;48.572;7.838;2023-06-22T11:49:17;28.60;99.90
14192;DHT22;7177;48.572;7.838;2023-06-22T11:51:42;30.20;99.90
14192;DHT22;7177;48.572;7.838;2023-06-22T11:54:08;29.90;99.90
14192;DHT22;7177;48.572;7.838;2023-06-22T11:56:33;29.80;99.90
14192;DHT22;7177;48.572;7.838;2023-06-22T11:58:58;29.70;99.90
14192;DHT22;7177;48.572;7.838;2023-06-22T12:01:24;29.60;99.90
14192;DHT22;7177;48.572;7.838;2023-06-22T12:03:49;29.40;99.90
14192;DHT22;7177;48.572;7.838;2023-06-22T12:06:16;29.40;99.90
14192;DHT22;7177;48.572;7.838;2023-06-22T12:08:41;29.20;99.90
14192;DHT22;7177;48.572;7.838;2023-06-22T12:11:07;29.30;99.90
14192;DHT22;7177;48.572;7.838;2023-06-22T12:13:32;29.30;99.90
14192;DHT22;7177;48.572;7.838;2023-06-22T12:15:58;29.40;99.90
14192;DHT22;7177;48.572;7.838;2023-06-22T12:18:23;29.60;99.90
14192;DHT22;7177;48.572;7.838;2023-06-22T12:20:49;29.60;99.90
14192;DHT22;7177;48.572;7.838;2023-06-22T12:23:15;30.20;99.90
14192;DHT22;7177;48.572;7.838;2023-06-22T12:25:40;31.10;99.90
14192;DHT22;7177;48.572;7.838;2023-06-22T12:28:06;31.70;99.90
14192;DHT22;7177;48.572;7.838;2023-06-22T12:30:34;32.10;99.90
14192;DHT22;7177;48.572;7.838;2023-06-22T12:33:00;32.30;99.90
14192;DHT22;7177;48.572;7.838;2023-06-22T12:35:26;32.00;99.90
14192;DHT22;7177;48.572;7.838;2023-06-22T12:37:51;31.50;99.90
14192;DHT22;7177;48.572;7.838;2023-06-22T12:40:17;31.10;99.90
14192;DHT22;7177;48.572;7.838;2023-06-22T12:42:42;30.90;99.90
14192;DHT22;7177;48.572;7.838;2023-06-22T12:45:08;30.90;99.90
14192;DHT22;7177;48.572;7.838;2023-06-22T12:47:34;30.90;99.90
14192;DHT22;7177;48.572;7.838;2023-06-22T12:49:59;31.00;99.90
14192;DHT22;7177;48.572;7.838;2023-06-22T12:52:25;31.20;99.90
14192;DHT22;7177;48.572;7.838;2023-06-22T12:54:50;31.30;99.90
14192;DHT22;7177;48.572;7.838;2023-06-22T12:57:17;31.20;99.90
14192;DHT22;7177;48.572;7.838;2023-06-22T12:59:44;31.00;99.90
14192;DHT22;7177;48.572;7.838;2023-06-22T13:02:10;30.70;99.90
14192;DHT22;7177;48.572;7.838;2023-06-22T13:04:35;30.60;99.90
14192;DHT22;7177;48.572;7.838;2023-06-22T13:07:01;30.80;99.90
14192;DHT22;7177;48.572;7.838;2023-06-22T13:09:26;31.10;99.90
14192;DHT22;7177;48.572;7.838;2023-06-22T13:11:52;31.40;99.90
14192;DHT22;7177;48.572;7.838;2023-06-22T13:14:18;31.20;99.90
14192;DHT22;7177;48.572;7.838;2023-06-22T13:16:43;30.90;99.90
14192;DHT22;7177;48.572;7.838;2023-06-22T13:19:09;31.00;99.90
14192;DHT22;7177;48.572;7.838;2023-06-22T13:21:34;31.30;99.90
14192;DHT22;7177;48.572;7.838;2023-06-22T13:24:00;31.70;99.90
14192;DHT22;7177;48.572;7.838;2023-06-22T13:26:26;31.80;99.90
14192;DHT22;7177;48.572;7.838;2023-06-22T13:28:54;31.70;99.90
14192;DHT22;7177;48.572;7.838;2023-06-22T13:31:19;31.80;99.90
14192;DHT22;7177;48.572;7.838;2023-06-22T13:33:45;32.30;99.90
14192;DHT22;7177;48.572;7.838;2023-06-22T13:36:13;32.30;99.90
14192;DHT22;7177;48.572;7.838;2023-06-22T13:38:38;32.50;99.90
14192;DHT22;7177;48.572;7.838;2023-06-22T13:41:05;32.60;99.90
14192;DHT22;7177;48.572;7.838;2023-06-22T13:43:31;32.90;99.90
14192;DHT22;7177;48.572;7.838;2023-06-22T13:45:57;33.00;99.90
14192;DHT22;7177;48.572;7.838;2023-06-22T13:48:22;33.20;99.90
14192;DHT22;7177;48.572;7.838;2023-06-22T13:50:49;33.10;99.90
14192;DHT22;7177;48.572;7.838;2023-06-22T13:53:14;33.00;99.90
14192;DHT22;7177;48.572;7.838;2023-06-22T13:55:40;33.20;99.90
14192;DHT22;7177;48.572;7.838;2023-06-22T13:58:05;33.30;99.90
14192;DHT22;7177;48.572;7.838;2023-06-22T14:00:31;32.80;99.90
14192;DHT22;7177;48.572;7.838;2023-06-22T14:02:56;32.60;99.90
14192;DHT22;7177;48.572;7.838;2023-06-22T14:05:22;32.50;99.90
14192;DHT22;7177;48.572;7.838;2023-06-22T14:07:47;32.20;99.90
14192;DHT22;7177;48.572;7.838;2023-06-22T14:10:13;32.10;99.90
14192;DHT22;7177;48.572;7.838;2023-06-22T14:12:38;32.30;99.90
14192;DHT22;7177;48.572;7.838;2023-06-22T14:15:04;32.50;99.90
14192;DHT22;7177;48.572;7.838;2023-06-22T14:17:30;32.60;99.90
14192;DHT22;7177;48.572;7.838;2023-06-22T14:19:55;32.50;99.90
14192;DHT22;7177;48.572;7.838;2023-06-22T14:22:22;32.30;99.90
14192;DHT22;7177;48.572;7.838;2023-06-22T14:24:48;32.20;99.90
14192;DHT22;7177;48.572;7.838;2023-06-22T14:27:14;32.30;99.90
14192;DHT22;7177;48.572;7.838;2023-06-22T14:29:39;32.90;99.90
14192;DHT22;7177;48.572;7.838;2023-06-22T14:32:05;33.60;99.90
14192;DHT22;7177;48.572;7.838;2023-06-22T14:34:32;34.00;99.90
14192;DHT22;7177;48.572;7.838;2023-06-22T14:36:58;33.90;99.90
14192;DHT22;7177;48.572;7.838;2023-06-22T14:39:23;34.10;99.90
14192;DHT22;7177;48.572;7.838;2023-06-22T14:41:49;34.20;99.90
14192;DHT22;7177;48.572;7.838;2023-06-22T14:44:15;34.00;99.90
14192;DHT22;7177;48.572;7.838;2023-06-22T14:46:40;33.90;99.90
14192;DHT22;7177;48.572;7.838;2023-06-22T14:49:06;34.10;99.90
14192;DHT22;7177;48.572;7.838;2023-06-22T14:51:31;34.20;99.90
14192;DHT22;7177;48.572;7.838;2023-06-22T14:53:57;34.00;99.90
14192;DHT22;7177;48.572;7.838;2023-06-22T14:56:22;34.30;99.90
14192;DHT22;7177;48.572;7.838;2023-06-22T14:58:48;34.50;99.90
14192;DHT22;7177;48.572;7.838;2023-06-22T15:01:16;34.60;99.90
14192;DHT22;7177;48.572;7.838;2023-06-22T15:03:42;34.40;99.90
14192;DHT22;7177;48.572;7.838;2023-06-22T15:06:08;34.30;99.30
14192;DHT22;7177;48.572;7.838;2023-06-22T15:08:34;34.40;98.80
14192;DHT22;7177;48.572;7.838;2023-06-22T15:11:00;34.40;98.70
14192;DHT22;7177;48.572;7.838;2023-06-22T15:13:30;34.50;98.90
14192;DHT22;7177;48.572;7.838;2023-06-22T15:15:59;34.60;99.60
14192;DHT22;7177;48.572;7.838;2023-06-22T15:18:25;34.30;99.10
14192;DHT22;7177;48.572;7.838;2023-06-22T15:20:51;33.80;98.50
14192;DHT22;7177;48.572;7.838;2023-06-22T15:23:17;33.40;98.80
14192;DHT22;7177;48.572;7.838;2023-06-22T15:25:42;33.10;98.90
14192;DHT22;7177;48.572;7.838;2023-06-22T15:28:09;33.20;99.50
14192;DHT22;7177;48.572;7.838;2023-06-22T15:30:35;33.40;99.10
14192;DHT22;7177;48.572;7.838;2023-06-22T15:33:01;33.50;97.90
14192;DHT22;7177;48.572;7.838;2023-06-22T15:35:27;33.40;97.60
14192;DHT22;7177;48.572;7.838;2023-06-22T15:37:52;33.30;97.20
14192;DHT22;7177;48.572;7.838;2023-06-22T15:40:18;33.10;97.20
14192;DHT22;7177;48.572;7.838;2023-06-22T15:42:44;32.90;98.10